createdAt,value
2023-03-03T00:02:23.753Z,82.84
2023-03-03T00:07:23.719Z,82.74
2023-03-03T00:12:23.666Z,82.74
2023-03-03T00:17:23.594Z,82.95
2023-03-03T00:22:23.503Z,83.05
2023-03-03T00:27:23.486Z,82.84
2023-03-03T00:32:23.413Z,82.89
2023-03-03T00:37:23.357Z,82.99
2023-03-03T00:42:23.319Z,83.03
2023-03-03T00:47:23.220Z,83.03
2023-03-03T00:52:23.192Z,83.34
2023-03-03T00:57:23.103Z,83.48
2023-03-03T01:02:23.141Z,83.80
2023-03-03T01:07:22.955Z,83.69
2023-03-03T01:12:22.885Z,83.69
2023-03-03T01:17:22.854Z,83.69
2023-03-03T01:22:22.774Z,83.37
2023-03-03T01:27:22.724Z,83.06
2023-03-03T01:32:22.673Z,82.75
2023-03-03T01:37:22.614Z,82.54
2023-03-03T01:42:22.546Z,82.65
2023-03-03T01:47:22.490Z,82.65
2023-03-03T01:52:22.474Z,82.75
2023-03-03T01:57:22.385Z,82.89
2023-03-03T02:02:22.286Z,83.00
2023-03-03T02:07:22.235Z,82.89
2023-03-03T02:12:22.171Z,82.89
2023-03-03T02:17:22.112Z,82.68
2023-03-03T02:22:22.038Z,82.68
2023-03-03T02:27:22.015Z,82.68
2023-03-03T02:32:22.010Z,82.68
2023-03-03T02:37:21.885Z,83.20
2023-03-03T02:42:21.838Z,83.52
2023-03-03T02:47:21.717Z,83.76
2023-03-03T02:52:21.678Z,83.97
2023-03-03T02:57:21.628Z,84.84
2023-03-03T03:02:21.570Z,84.53
2023-03-03T03:07:21.485Z,84.12
2023-03-03T03:12:21.464Z,84.57
2023-03-03T03:17:21.376Z,84.99
2023-03-03T03:22:21.382Z,85.10
2023-03-03T03:27:21.243Z,85.30
2023-03-03T03:32:21.208Z,86.49
2023-03-03T03:37:21.177Z,87.37
2023-03-03T03:42:21.045Z,87.61
2023-03-03T03:47:21.312Z,88.03
2023-03-03T03:52:20.928Z,88.65
2023-03-03T03:57:20.906Z,89.01
2023-03-03T04:02:20.885Z,89.11
2023-03-03T04:07:20.726Z,88.87
2023-03-03T04:12:20.685Z,88.34
2023-03-03T04:17:20.610Z,87.82
2023-03-03T04:22:20.683Z,87.47
2023-03-03T04:27:20.504Z,88.28
2023-03-03T04:32:20.496Z,88.99
2023-03-03T04:37:20.417Z,89.72
2023-03-03T04:42:20.309Z,90.08
2023-03-03T04:47:20.279Z,90.39
2023-03-03T04:52:20.247Z,89.86
2023-03-03T04:57:20.153Z,91.27
2023-03-03T05:02:20.091Z,92.21
2023-03-03T05:07:20.027Z,93.51
2023-03-03T05:12:19.958Z,93.76
2023-03-03T05:17:19.927Z,94.07
2023-03-03T05:22:19.837Z,94.64
2023-03-03T05:27:19.758Z,95.58
2023-03-03T05:32:19.748Z,96.42
2023-03-03T05:37:19.629Z,97.20
2023-03-03T05:42:19.568Z,97.09
2023-03-03T05:47:19.542Z,96.78
2023-03-03T05:52:19.455Z,97.62
2023-03-03T05:57:19.419Z,98.04
2023-03-03T06:02:19.367Z,98.35
2023-03-03T06:07:19.347Z,98.98
2023-03-03T06:12:20.168Z,99.08
2023-03-03T06:17:19.161Z,98.77
2023-03-03T06:22:19.117Z,98.77
2023-03-03T06:27:19.028Z,98.25
2023-03-03T06:32:18.989Z,98.46
2023-03-03T06:37:18.954Z,98.46
2023-03-03T06:42:18.844Z,98.56
2023-03-03T06:47:18.781Z,98.83
2023-03-03T06:52:18.748Z,98.83
2023-03-03T06:57:18.695Z,99.10
2023-03-03T07:02:18.586Z,99.43
2023-03-03T07:07:18.538Z,98.65
2023-03-03T07:12:18.484Z,98.77
2023-03-03T07:17:18.716Z,97.74
2023-03-03T07:22:18.387Z,97.24
2023-03-03T07:27:18.392Z,96.94
2023-03-03T07:32:18.295Z,96.58
2023-03-03T07:37:18.203Z,96.08
2023-03-03T07:42:18.112Z,94.99
2023-03-03T07:47:18.070Z,93.66
2023-03-03T07:52:18.010Z,91.37
2023-03-03T07:57:17.957Z,91.06
2023-03-03T08:02:17.866Z,90.56
2023-03-03T08:07:17.810Z,88.79
2023-03-03T08:12:17.763Z,88.30
2023-03-03T08:17:17.714Z,87.12
2023-03-03T08:22:17.635Z,85.52
2023-03-03T08:27:17.600Z,82.95
2023-03-03T08:32:17.553Z,78.78
2023-03-03T08:37:17.454Z,74.71
2023-03-03T08:42:17.393Z,73.67
2023-03-03T08:47:17.430Z,73.54
2023-03-03T08:52:17.257Z,72.22
2023-03-03T08:57:17.195Z,70.26
2023-03-03T09:02:17.194Z,71.12
2023-03-03T09:07:17.115Z,71.22
2023-03-03T09:12:17.064Z,71.84
2023-03-03T09:17:17.343Z,71.92
2023-03-03T09:22:16.892Z,72.33
2023-03-03T09:27:16.838Z,71.67
2023-03-03T09:32:16.799Z,70.92
2023-03-03T09:37:16.744Z,70.51
2023-03-03T09:42:16.644Z,71.44
2023-03-03T09:47:16.593Z,70.78
2023-03-03T09:52:16.544Z,70.68
2023-03-03T09:57:16.459Z,70.37
2023-03-03T10:02:16.392Z,70.75
2023-03-03T10:07:16.331Z,70.03
2023-03-03T10:12:17.768Z,69.96
2023-03-03T10:17:16.220Z,70.04
2023-03-03T10:22:16.107Z,69.38
2023-03-03T10:27:16.082Z,68.56
2023-03-03T10:32:16.529Z,69.04
2023-03-03T10:37:15.988Z,67.36
2023-03-03T10:42:15.868Z,66.75
2023-03-03T10:47:15.856Z,67.26
2023-03-03T10:52:15.831Z,66.31
2023-03-03T10:57:15.666Z,67.71
2023-03-03T11:02:15.578Z,66.76
2023-03-03T11:07:15.524Z,64.70
2023-03-03T11:12:15.487Z,65.83
2023-03-03T11:17:15.378Z,66.31
2023-03-03T11:22:15.398Z,65.47
2023-03-03T11:27:15.274Z,65.57
2023-03-03T11:32:15.244Z,66.05
2023-03-03T11:37:15.176Z,66.28
2023-03-03T11:42:15.425Z,66.97
2023-03-03T11:47:15.021Z,65.71
2023-03-03T11:52:14.988Z,65.61
2023-03-03T11:57:14.904Z,65.07
2023-03-03T12:02:14.878Z,64.97
2023-03-03T12:07:19.452Z,64.73
2023-03-03T12:12:15.700Z,64.53
2023-03-03T12:17:14.671Z,64.32
2023-03-03T12:22:14.605Z,64.83
2023-03-03T12:27:14.565Z,64.22
2023-03-03T12:32:14.590Z,64.14
2023-03-03T12:37:14.418Z,64.73
2023-03-03T12:42:14.354Z,64.12
2023-03-03T12:47:14.318Z,63.98
2023-03-03T12:52:14.262Z,64.26
2023-03-03T12:57:14.172Z,63.95
2023-03-03T13:02:14.166Z,64.18
2023-03-03T13:07:14.061Z,63.68
2023-03-03T13:12:13.973Z,63.65
2023-03-03T13:17:13.955Z,63.18
2023-03-03T13:22:13.848Z,62.36
2023-03-03T13:27:13.787Z,62.74
2023-03-03T13:32:13.815Z,62.74
2023-03-03T13:37:13.650Z,62.54
2023-03-03T13:42:13.604Z,62.54
2023-03-03T13:47:13.556Z,62.37
2023-03-03T13:52:13.483Z,61.56
2023-03-03T13:57:13.408Z,61.90
2023-03-03T14:02:13.394Z,62.58
2023-03-03T14:07:13.311Z,62.30
2023-03-03T14:12:13.236Z,62.20
2023-03-03T14:17:13.158Z,62.10
2023-03-03T14:22:13.112Z,62.92
2023-03-03T14:27:13.067Z,62.51
2023-03-03T14:32:13.018Z,62.92
2023-03-03T14:37:12.947Z,62.27
2023-03-03T14:42:12.940Z,61.83
2023-03-03T14:47:12.959Z,61.76
2023-03-03T14:52:12.697Z,61.76
2023-03-03T14:57:12.668Z,62.17
2023-03-03T15:02:12.569Z,62.27
2023-03-03T15:07:12.516Z,61.99
2023-03-03T15:12:12.456Z,61.79
2023-03-03T15:17:12.417Z,61.99
2023-03-03T15:22:12.315Z,62.43
2023-03-03T15:27:12.246Z,62.23
2023-03-03T15:32:12.276Z,62.57
2023-03-03T15:37:12.169Z,62.98
2023-03-03T15:42:12.067Z,63.31
2023-03-03T15:47:12.033Z,63.62
2023-03-03T15:52:11.948Z,63.82
2023-03-03T15:57:11.894Z,63.85
2023-03-03T16:02:11.758Z,64.67
2023-03-03T16:07:11.747Z,65.42
2023-03-03T16:12:11.663Z,65.75
2023-03-03T16:17:11.591Z,66.16
2023-03-03T16:22:11.524Z,66.71
2023-03-03T16:27:11.481Z,67.22
2023-03-03T16:32:11.441Z,67.66
2023-03-03T16:37:11.355Z,67.59
2023-03-03T16:42:11.286Z,68.10
2023-03-03T16:47:11.205Z,68.54
2023-03-03T16:52:11.151Z,68.99
2023-03-03T16:57:11.088Z,69.32
2023-03-03T17:02:11.011Z,69.56
2023-03-03T17:07:10.981Z,69.80
2023-03-03T17:12:10.893Z,70.56
2023-03-03T17:17:10.891Z,71.07
2023-03-03T17:22:10.733Z,71.41
2023-03-03T17:27:10.705Z,72.16
2023-03-03T17:32:10.731Z,72.61
2023-03-03T17:37:10.596Z,72.85
2023-03-03T17:42:10.509Z,73.26
2023-03-03T17:47:10.431Z,73.81
2023-03-03T17:52:10.374Z,74.15
2023-03-03T17:57:10.337Z,74.36
2023-03-03T18:02:10.258Z,74.60
2023-03-03T18:07:10.188Z,74.53
2023-03-03T18:12:10.130Z,74.12
2023-03-03T18:17:10.033Z,74.02
2023-03-03T18:22:09.972Z,74.36
2023-03-03T18:27:09.907Z,75.53
2023-03-03T18:32:09.883Z,76.50
2023-03-03T18:37:09.836Z,77.22
2023-03-03T18:42:09.717Z,78.22
2023-03-03T18:47:09.660Z,78.78
2023-03-03T18:52:09.594Z,79.99
2023-03-03T18:57:09.522Z,81.44
2023-03-03T19:02:09.476Z,82.76
2023-03-03T19:07:09.434Z,83.22
2023-03-03T19:12:09.362Z,82.90
2023-03-03T19:17:09.299Z,83.25
2023-03-03T19:22:09.247Z,85.51
2023-03-03T19:27:09.195Z,85.72
2023-03-03T19:32:09.193Z,86.69
2023-03-03T19:37:09.112Z,87.21
2023-03-03T19:42:09.032Z,88.09
2023-03-03T19:47:08.940Z,88.54
2023-03-03T19:52:08.873Z,88.89
2023-03-03T19:57:08.828Z,89.35
2023-03-03T20:02:08.895Z,90.22
2023-03-03T20:07:08.702Z,91.10
2023-03-03T20:12:08.661Z,91.46
2023-03-03T20:17:08.607Z,92.54
2023-03-03T20:22:08.507Z,92.75
2023-03-03T20:27:08.460Z,93.84
2023-03-03T20:32:08.478Z,94.46
2023-03-03T20:37:08.418Z,95.13
2023-03-03T20:42:08.286Z,95.55
2023-03-03T20:47:08.208Z,95.65
2023-03-03T20:52:08.178Z,95.86
2023-03-03T20:57:08.115Z,95.97
2023-03-03T21:02:08.041Z,96.11
2023-03-03T21:07:07.975Z,96.33
2023-03-03T21:12:07.938Z,96.01
2023-03-03T21:17:07.844Z,96.58
2023-03-03T21:22:07.806Z,96.89
2023-03-03T21:27:07.768Z,97.35
2023-03-03T21:32:07.790Z,96.94
2023-03-03T21:37:07.588Z,97.08
2023-03-03T21:42:07.585Z,97.71
2023-03-03T21:47:07.472Z,97.39
2023-03-03T21:52:07.495Z,97.44
2023-03-03T21:57:07.411Z,98.07
2023-03-03T22:02:07.321Z,97.55
2023-03-03T22:07:07.235Z,97.80
2023-03-03T22:12:07.159Z,98.85
2023-03-03T22:17:07.111Z,99.00
2023-03-03T22:22:07.041Z,98.89
2023-03-03T22:27:07.004Z,99.57
2023-03-03T22:32:06.935Z,99.67
2023-03-03T22:37:06.880Z,99.67
2023-03-03T22:42:06.793Z,99.99
2023-03-03T22:47:06.757Z,99.99
2023-03-03T22:52:06.723Z,99.99
2023-03-03T22:57:06.631Z,99.99
2023-03-03T23:02:06.599Z,99.99
2023-03-03T23:07:06.522Z,99.99
2023-03-03T23:12:06.429Z,99.99
2023-03-03T23:17:06.389Z,99.99
2023-03-03T23:22:06.307Z,99.99
2023-03-03T23:27:06.229Z,99.99
2023-03-03T23:32:06.226Z,99.99
2023-03-03T23:37:06.195Z,99.99
2023-03-03T23:42:06.085Z,99.99
2023-03-03T23:47:06.003Z,99.99
2023-03-03T23:52:05.973Z,99.99
2023-03-03T23:57:05.882Z,99.99
